sensor_id;sensor_type;location;lat;lon;timestamp;P1;durP1;ratioP1;P2;durP2;ratioP2
38629;SDS011;24384;51.988;4.644;2024-02-23T00:01:23;10.68;;;1.80;;
38629;SDS011;24384;51.988;4.644;2024-02-23T00:03:55;14.80;;;3.20;;
38629;SDS011;24384;51.988;4.644;2024-02-23T00:06:21;21.23;;;2.65;;
38629;SDS011;24384;51.988;4.644;2024-02-23T00:08:48;12.82;;;2.40;;
38629;SDS011;24384;51.988;4.644;2024-02-23T00:11:13;11.60;;;1.73;;
38629;SDS011;24384;51.988;4.644;2024-02-23T00:13:39;17.85;;;2.05;;
38629;SDS011;24384;51.988;4.644;2024-02-23T00:16:04;13.63;;;2.35;;
38629;SDS011;24384;51.988;4.644;2024-02-23T00:18:33;13.73;;;3.13;;
38629;SDS011;24384;51.988;4.644;2024-02-23T00:20:58;15.55;;;2.78;;
38629;SDS011;24384;51.988;4.644;2024-02-23T00:23:26;7.43;;;1.60;;
38629;SDS011;24384;51.988;4.644;2024-02-23T00:25:53;8.93;;;2.13;;
38629;SDS011;24384;51.988;4.644;2024-02-23T00:28:19;8.65;;;1.65;;
38629;SDS011;24384;51.988;4.644;2024-02-23T00:30:46;10.10;;;2.03;;
38629;SDS011;24384;51.988;4.644;2024-02-23T00:33:14;7.10;;;1.35;;
38629;SDS011;24384;51.988;4.644;2024-02-23T00:35:42;6.93;;;1.40;;
38629;SDS011;24384;51.988;4.644;2024-02-23T00:38:09;8.07;;;1.52;;
38629;SDS011;24384;51.988;4.644;2024-02-23T00:40:45;9.38;;;2.47;;
38629;SDS011;24384;51.988;4.644;2024-02-23T00:43:10;10.57;;;2.03;;
38629;SDS011;24384;51.988;4.644;2024-02-23T00:45:36;9.73;;;1.83;;
38629;SDS011;24384;51.988;4.644;2024-02-23T00:48:01;8.20;;;1.92;;
38629;SDS011;24384;51.988;4.644;2024-02-23T00:50:27;8.35;;;1.42;;
38629;SDS011;24384;51.988;4.644;2024-02-23T00:52:54;12.68;;;3.65;;
38629;SDS011;24384;51.988;4.644;2024-02-23T00:55:22;10.20;;;1.92;;
38629;SDS011;24384;51.988;4.644;2024-02-23T00:57:50;16.75;;;1.98;;
38629;SDS011;24384;51.988;4.644;2024-02-23T01:00:15;11.93;;;2.38;;
38629;SDS011;24384;51.988;4.644;2024-02-23T01:02:43;6.88;;;1.92;;
38629;SDS011;24384;51.988;4.644;2024-02-23T01:05:08;11.40;;;1.83;;
38629;SDS011;24384;51.988;4.644;2024-02-23T01:07:35;12.73;;;2.05;;
38629;SDS011;24384;51.988;4.644;2024-02-23T01:10:01;19.88;;;2.13;;
38629;SDS011;24384;51.988;4.644;2024-02-23T01:12:26;12.65;;;2.15;;
38629;SDS011;24384;51.988;4.644;2024-02-23T01:14:53;16.10;;;1.92;;
38629;SDS011;24384;51.988;4.644;2024-02-23T01:17:18;15.45;;;2.47;;
38629;SDS011;24384;51.988;4.644;2024-02-23T01:19:43;10.38;;;1.80;;
38629;SDS011;24384;51.988;4.644;2024-02-23T01:22:09;12.65;;;1.77;;
38629;SDS011;24384;51.988;4.644;2024-02-23T01:24:35;11.07;;;1.92;;
38629;SDS011;24384;51.988;4.644;2024-02-23T01:27:00;6.65;;;1.55;;
38629;SDS011;24384;51.988;4.644;2024-02-23T01:29:26;5.65;;;1.60;;
38629;SDS011;24384;51.988;4.644;2024-02-23T01:31:51;21.70;;;2.33;;
38629;SDS011;24384;51.988;4.644;2024-02-23T01:34:19;6.70;;;1.63;;
38629;SDS011;24384;51.988;4.644;2024-02-23T01:36:47;9.80;;;2.70;;
38629;SDS011;24384;51.988;4.644;2024-02-23T01:39:12;7.25;;;1.60;;
38629;SDS011;24384;51.988;4.644;2024-02-23T01:41:40;11.70;;;2.22;;
38629;SDS011;24384;51.988;4.644;2024-02-23T01:44:16;12.80;;;1.83;;
38629;SDS011;24384;51.988;4.644;2024-02-23T01:46:52;11.18;;;1.67;;
38629;SDS011;24384;51.988;4.644;2024-02-23T01:49:23;5.20;;;1.50;;
38629;SDS011;24384;51.988;4.644;2024-02-23T01:52:12;7.93;;;1.63;;
38629;SDS011;24384;51.988;4.644;2024-02-23T01:54:47;12.55;;;2.25;;
38629;SDS011;24384;51.988;4.644;2024-02-23T01:57:16;7.68;;;1.58;;
38629;SDS011;24384;51.988;4.644;2024-02-23T01:59:42;11.55;;;1.73;;
38629;SDS011;24384;51.988;4.644;2024-02-23T02:02:07;12.60;;;2.00;;
38629;SDS011;24384;51.988;4.644;2024-02-23T02:04:33;12.65;;;1.70;;
38629;SDS011;24384;51.988;4.644;2024-02-23T02:06:58;14.10;;;2.03;;
38629;SDS011;24384;51.988;4.644;2024-02-23T02:09:25;20.23;;;2.42;;
38629;SDS011;24384;51.988;4.644;2024-02-23T02:11:51;14.32;;;2.50;;
38629;SDS011;24384;51.988;4.644;2024-02-23T02:14:17;12.52;;;2.22;;
38629;SDS011;24384;51.988;4.644;2024-02-23T02:16:44;8.80;;;1.83;;
38629;SDS011;24384;51.988;4.644;2024-02-23T02:19:10;19.73;;;3.95;;
38629;SDS011;24384;51.988;4.644;2024-02-23T02:21:36;10.27;;;1.60;;
38629;SDS011;24384;51.988;4.644;2024-02-23T02:24:06;9.00;;;2.70;;
38629;SDS011;24384;51.988;4.644;2024-02-23T02:26:34;12.63;;;1.92;;
38629;SDS011;24384;51.988;4.644;2024-02-23T02:29:11;9.88;;;1.70;;
38629;SDS011;24384;51.988;4.644;2024-02-23T02:31:36;11.43;;;1.38;;
38629;SDS011;24384;51.988;4.644;2024-02-23T02:34:02;11.85;;;2.28;;
38629;SDS011;24384;51.988;4.644;2024-02-23T02:36:28;27.83;;;3.55;;
38629;SDS011;24384;51.988;4.644;2024-02-23T02:39:03;12.23;;;2.40;;
38629;SDS011;24384;51.988;4.644;2024-02-23T02:41:31;13.43;;;1.50;;
38629;SDS011;24384;51.988;4.644;2024-02-23T02:43:56;10.98;;;1.70;;
38629;SDS011;24384;51.988;4.644;2024-02-23T02:46:21;13.38;;;2.38;;
38629;SDS011;24384;51.988;4.644;2024-02-23T02:48:47;9.65;;;1.83;;
38629;SDS011;24384;51.988;4.644;2024-02-23T02:51:14;17.98;;;2.42;;
38629;SDS011;24384;51.988;4.644;2024-02-23T02:53:39;14.13;;;1.23;;
38629;SDS011;24384;51.988;4.644;2024-02-23T02:56:05;8.57;;;1.45;;
38629;SDS011;24384;51.988;4.644;2024-02-23T02:58:31;13.98;;;2.10;;
38629;SDS011;24384;51.988;4.644;2024-02-23T03:00:57;10.57;;;1.77;;
38629;SDS011;24384;51.988;4.644;2024-02-23T03:03:22;11.95;;;1.80;;
38629;SDS011;24384;51.988;4.644;2024-02-23T03:05:47;11.00;;;1.63;;
38629;SDS011;24384;51.988;4.644;2024-02-23T03:08:13;11.80;;;2.03;;
38629;SDS011;24384;51.988;4.644;2024-02-23T03:10:40;10.23;;;1.60;;
38629;SDS011;24384;51.988;4.644;2024-02-23T03:13:06;8.55;;;1.67;;
38629;SDS011;24384;51.988;4.644;2024-02-23T03:15:31;10.82;;;1.70;;
38629;SDS011;24384;51.988;4.644;2024-02-23T03:17:57;16.33;;;1.70;;
38629;SDS011;24384;51.988;4.644;2024-02-23T03:20:22;9.82;;;1.67;;
38629;SDS011;24384;51.988;4.644;2024-02-23T03:22:47;11.75;;;1.88;;
38629;SDS011;24384;51.988;4.644;2024-02-23T03:25:16;15.30;;;1.88;;
38629;SDS011;24384;51.988;4.644;2024-02-23T03:27:41;13.05;;;2.03;;
38629;SDS011;24384;51.988;4.644;2024-02-23T03:30:07;7.20;;;1.35;;
38629;SDS011;24384;51.988;4.644;2024-02-23T03:32:35;10.77;;;1.50;;
38629;SDS011;24384;51.988;4.644;2024-02-23T03:35:02;10.98;;;2.13;;
38629;SDS011;24384;51.988;4.644;2024-02-23T03:37:28;6.18;;;2.50;;
38629;SDS011;24384;51.988;4.644;2024-02-23T03:39:53;10.55;;;1.73;;
38629;SDS011;24384;51.988;4.644;2024-02-23T03:42:19;12.70;;;1.55;;
38629;SDS011;24384;51.988;4.644;2024-02-23T03:44:44;8.27;;;1.80;;
38629;SDS011;24384;51.988;4.644;2024-02-23T03:47:09;10.38;;;2.33;;
38629;SDS011;24384;51.988;4.644;2024-02-23T03:49:35;11.25;;;1.92;;
38629;SDS011;24384;51.988;4.644;2024-02-23T03:52:00;13.20;;;2.25;;
38629;SDS011;24384;51.988;4.644;2024-02-23T03:54:33;20.65;;;2.63;;
38629;SDS011;24384;51.988;4.644;2024-02-23T03:56:58;11.02;;;2.47;;
38629;SDS011;24384;51.988;4.644;2024-02-23T03:59:23;13.25;;;2.35;;
38629;SDS011;24384;51.988;4.644;2024-02-23T04:01:49;12.38;;;1.85;;
38629;SDS011;24384;51.988;4.644;2024-02-23T04:04:14;12.30;;;3.38;;
38629;SDS011;24384;51.988;4.644;2024-02-23T04:06:40;16.38;;;2.38;;
38629;SDS011;24384;51.988;4.644;2024-02-23T04:09:05;10.48;;;1.92;;
38629;SDS011;24384;51.988;4.644;2024-02-23T04:11:31;9.70;;;1.92;;
38629;SDS011;24384;51.988;4.644;2024-02-23T04:13:56;9.75;;;2.35;;
38629;SDS011;24384;51.988;4.644;2024-02-23T04:16:22;15.27;;;3.15;;
38629;SDS011;24384;51.988;4.644;2024-02-23T04:18:49;11.27;;;1.98;;
38629;SDS011;24384;51.988;4.644;2024-02-23T04:21:15;17.02;;;2.10;;
38629;SDS011;24384;51.988;4.644;2024-02-23T04:23:40;11.35;;;1.85;;
38629;SDS011;24384;51.988;4.644;2024-02-23T04:26:06;12.55;;;2.50;;
38629;SDS011;24384;51.988;4.644;2024-02-23T04:28:31;11.57;;;2.28;;
38629;SDS011;24384;51.988;4.644;2024-02-23T04:30:58;10.25;;;1.98;;
38629;SDS011;24384;51.988;4.644;2024-02-23T04:33:24;10.88;;;2.30;;
38629;SDS011;24384;51.988;4.644;2024-02-23T04:35:49;11.07;;;2.10;;
38629;SDS011;24384;51.988;4.644;2024-02-23T04:38:22;12.88;;;2.35;;
38629;SDS011;24384;51.988;4.644;2024-02-23T04:40:47;11.35;;;1.77;;
38629;SDS011;24384;51.988;4.644;2024-02-23T04:43:13;8.27;;;2.60;;
38629;SDS011;24384;51.988;4.644;2024-02-23T04:45:40;14.77;;;1.95;;
38629;SDS011;24384;51.988;4.644;2024-02-23T04:48:06;9.35;;;2.25;;
38629;SDS011;24384;51.988;4.644;2024-02-23T04:50:31;8.30;;;1.60;;
38629;SDS011;24384;51.988;4.644;2024-02-23T04:52:57;9.35;;;2.08;;
38629;SDS011;24384;51.988;4.644;2024-02-23T04:55:22;10.82;;;2.20;;
38629;SDS011;24384;51.988;4.644;2024-02-23T04:57:47;7.72;;;1.30;;
38629;SDS011;24384;51.988;4.644;2024-02-23T05:00:13;14.35;;;1.55;;
38629;SDS011;24384;51.988;4.644;2024-02-23T05:02:38;9.38;;;1.65;;
38629;SDS011;24384;51.988;4.644;2024-02-23T05:05:04;4.20;;;1.10;;
38629;SDS011;24384;51.988;4.644;2024-02-23T05:07:32;5.45;;;2.30;;
38629;SDS011;24384;51.988;4.644;2024-02-23T05:10:04;15.25;;;3.10;;
38629;SDS011;24384;51.988;4.644;2024-02-23T05:12:30;6.40;;;1.85;;
38629;SDS011;24384;51.988;4.644;2024-02-23T05:14:55;10.80;;;2.70;;
38629;SDS011;24384;51.988;4.644;2024-02-23T05:17:23;8.18;;;2.50;;
38629;SDS011;24384;51.988;4.644;2024-02-23T05:19:48;10.38;;;2.13;;
38629;SDS011;24384;51.988;4.644;2024-02-23T05:22:13;6.65;;;2.63;;
38629;SDS011;24384;51.988;4.644;2024-02-23T05:24:39;13.07;;;3.05;;
38629;SDS011;24384;51.988;4.644;2024-02-23T05:27:11;17.90;;;3.00;;
38629;SDS011;24384;51.988;4.644;2024-02-23T05:29:41;8.65;;;2.25;;
38629;SDS011;24384;51.988;4.644;2024-02-23T05:32:20;15.20;;;2.50;;
38629;SDS011;24384;51.988;4.644;2024-02-23T05:34:55;11.60;;;2.80;;
38629;SDS011;24384;51.988;4.644;2024-02-23T05:37:32;9.07;;;2.47;;
38629;SDS011;24384;51.988;4.644;2024-02-23T05:40:07;15.75;;;4.03;;
38629;SDS011;24384;51.988;4.644;2024-02-23T05:42:49;9.65;;;2.35;;
38629;SDS011;24384;51.988;4.644;2024-02-23T05:45:22;6.25;;;1.63;;
38629;SDS011;24384;51.988;4.644;2024-02-23T05:47:54;16.52;;;2.35;;
38629;SDS011;24384;51.988;4.644;2024-02-23T05:50:20;9.02;;;2.15;;
38629;SDS011;24384;51.988;4.644;2024-02-23T05:52:45;8.15;;;1.88;;
38629;SDS011;24384;51.988;4.644;2024-02-23T05:55:25;9.10;;;2.03;;
38629;SDS011;24384;51.988;4.644;2024-02-23T05:57:55;6.60;;;2.55;;
38629;SDS011;24384;51.988;4.644;2024-02-23T06:00:34;7.68;;;1.88;;
38629;SDS011;24384;51.988;4.644;2024-02-23T06:03:10;6.60;;;2.38;;
38629;SDS011;24384;51.988;4.644;2024-02-23T06:05:38;10.13;;;2.97;;
38629;SDS011;24384;51.988;4.644;2024-02-23T06:08:13;11.52;;;2.20;;
38629;SDS011;24384;51.988;4.644;2024-02-23T06:10:49;11.15;;;2.28;;
38629;SDS011;24384;51.988;4.644;2024-02-23T06:13:25;8.13;;;2.47;;
38629;SDS011;24384;51.988;4.644;2024-02-23T06:16:03;9.45;;;2.13;;
38629;SDS011;24384;51.988;4.644;2024-02-23T06:18:46;10.55;;;2.50;;
38629;SDS011;24384;51.988;4.644;2024-02-23T06:21:21;10.55;;;2.00;;
38629;SDS011;24384;51.988;4.644;2024-02-23T06:23:59;8.82;;;2.25;;
38629;SDS011;24384;51.988;4.644;2024-02-23T06:26:35;7.50;;;2.03;;
38629;SDS011;24384;51.988;4.644;2024-02-23T06:29:03;15.90;;;2.42;;
38629;SDS011;24384;51.988;4.644;2024-02-23T06:31:39;7.03;;;2.47;;
38629;SDS011;24384;51.988;4.644;2024-02-23T06:34:15;20.65;;;4.40;;
38629;SDS011;24384;51.988;4.644;2024-02-23T06:36:51;11.85;;;3.53;;
38629;SDS011;24384;51.988;4.644;2024-02-23T06:39:37;10.48;;;3.67;;
38629;SDS011;24384;51.988;4.644;2024-02-23T06:44:40;14.95;;;3.45;;
38629;SDS011;24384;51.988;4.644;2024-02-23T06:47:16;8.23;;;2.35;;
38629;SDS011;24384;51.988;4.644;2024-02-23T06:49:52;10.88;;;3.17;;
38629;SDS011;24384;51.988;4.644;2024-02-23T06:52:28;10.23;;;2.95;;
38629;SDS011;24384;51.988;4.644;2024-02-23T06:55:06;8.73;;;3.47;;
38629;SDS011;24384;51.988;4.644;2024-02-23T06:57:44;6.63;;;3.03;;
38629;SDS011;24384;51.988;4.644;2024-02-23T07:00:10;8.75;;;3.13;;
38629;SDS011;24384;51.988;4.644;2024-02-23T07:02:43;14.00;;;2.95;;
38629;SDS011;24384;51.988;4.644;2024-02-23T07:05:18;12.48;;;3.20;;
38629;SDS011;24384;51.988;4.644;2024-02-23T07:07:43;10.23;;;3.88;;
38629;SDS011;24384;51.988;4.644;2024-02-23T07:10:08;10.85;;;2.67;;
38629;SDS011;24384;51.988;4.644;2024-02-23T07:12:35;8.85;;;2.83;;
38629;SDS011;24384;51.988;4.644;2024-02-23T07:15:00;10.18;;;2.50;;
38629;SDS011;24384;51.988;4.644;2024-02-23T07:17:26;8.45;;;2.75;;
38629;SDS011;24384;51.988;4.644;2024-02-23T07:19:53;4.70;;;1.80;;
38629;SDS011;24384;51.988;4.644;2024-02-23T07:22:18;5.22;;;1.88;;
38629;SDS011;24384;51.988;4.644;2024-02-23T07:24:45;12.55;;;2.55;;
38629;SDS011;24384;51.988;4.644;2024-02-23T07:27:11;12.93;;;4.38;;
38629;SDS011;24384;51.988;4.644;2024-02-23T07:29:36;13.88;;;2.53;;
38629;SDS011;24384;51.988;4.644;2024-02-23T07:32:02;7.47;;;3.15;;
38629;SDS011;24384;51.988;4.644;2024-02-23T07:34:30;12.50;;;2.20;;
38629;SDS011;24384;51.988;4.644;2024-02-23T07:36:56;6.75;;;2.25;;
38629;SDS011;24384;51.988;4.644;2024-02-23T07:39:21;8.27;;;2.00;;
38629;SDS011;24384;51.988;4.644;2024-02-23T07:41:47;12.32;;;2.25;;
38629;SDS011;24384;51.988;4.644;2024-02-23T07:44:12;13.15;;;2.92;;
38629;SDS011;24384;51.988;4.644;2024-02-23T07:46:39;8.90;;;2.22;;
38629;SDS011;24384;51.988;4.644;2024-02-23T07:49:05;8.98;;;2.67;;
38629;SDS011;24384;51.988;4.644;2024-02-23T07:51:33;13.10;;;2.63;;
38629;SDS011;24384;51.988;4.644;2024-02-23T07:53:58;10.98;;;2.40;;
38629;SDS011;24384;51.988;4.644;2024-02-23T07:56:23;10.65;;;2.17;;
38629;SDS011;24384;51.988;4.644;2024-02-23T07:58:49;15.27;;;2.75;;
38629;SDS011;24384;51.988;4.644;2024-02-23T08:01:14;6.60;;;2.33;;
38629;SDS011;24384;51.988;4.644;2024-02-23T08:03:40;9.57;;;2.10;;
38629;SDS011;24384;51.988;4.644;2024-02-23T08:06:05;8.95;;;2.78;;
38629;SDS011;24384;51.988;4.644;2024-02-23T08:08:31;12.25;;;2.78;;
38629;SDS011;24384;51.988;4.644;2024-02-23T08:10:59;8.40;;;2.20;;
38629;SDS011;24384;51.988;4.644;2024-02-23T08:13:29;8.35;;;2.33;;
38629;SDS011;24384;51.988;4.644;2024-02-23T08:15:55;20.70;;;3.08;;
38629;SDS011;24384;51.988;4.644;2024-02-23T08:18:20;11.75;;;2.20;;
38629;SDS011;24384;51.988;4.644;2024-02-23T08:20:47;14.45;;;2.85;;
38629;SDS011;24384;51.988;4.644;2024-02-23T08:23:12;8.77;;;2.33;;
38629;SDS011;24384;51.988;4.644;2024-02-23T08:25:38;9.35;;;2.38;;
38629;SDS011;24384;51.988;4.644;2024-02-23T08:28:03;11.35;;;3.30;;
38629;SDS011;24384;51.988;4.644;2024-02-23T08:30:29;12.52;;;1.88;;
38629;SDS011;24384;51.988;4.644;2024-02-23T08:32:54;11.98;;;2.17;;
38629;SDS011;24384;51.988;4.644;2024-02-23T08:35:19;12.23;;;3.97;;
38629;SDS011;24384;51.988;4.644;2024-02-23T08:37:44;7.45;;;2.28;;
38629;SDS011;24384;51.988;4.644;2024-02-23T08:40:11;14.07;;;2.83;;
38629;SDS011;24384;51.988;4.644;2024-02-23T08:42:37;14.70;;;2.28;;
38629;SDS011;24384;51.988;4.644;2024-02-23T08:45:02;10.23;;;2.88;;
38629;SDS011;24384;51.988;4.644;2024-02-23T08:47:28;12.30;;;2.35;;
38629;SDS011;24384;51.988;4.644;2024-02-23T08:49:57;10.68;;;2.40;;
38629;SDS011;24384;51.988;4.644;2024-02-23T08:52:23;11.43;;;2.88;;
38629;SDS011;24384;51.988;4.644;2024-02-23T08:54:50;8.63;;;2.65;;
38629;SDS011;24384;51.988;4.644;2024-02-23T08:57:16;6.60;;;1.80;;
38629;SDS011;24384;51.988;4.644;2024-02-23T08:59:44;9.68;;;2.25;;
38629;SDS011;24384;51.988;4.644;2024-02-23T09:02:10;8.60;;;2.17;;
38629;SDS011;24384;51.988;4.644;2024-02-23T09:04:35;11.30;;;3.35;;
38629;SDS011;24384;51.988;4.644;2024-02-23T09:07:03;13.23;;;1.88;;
38629;SDS011;24384;51.988;4.644;2024-02-23T09:09:28;10.43;;;1.52;;
38629;SDS011;24384;51.988;4.644;2024-02-23T09:11:54;13.13;;;2.25;;
38629;SDS011;24384;51.988;4.644;2024-02-23T09:14:19;10.07;;;1.83;;
38629;SDS011;24384;51.988;4.644;2024-02-23T09:16:44;9.93;;;2.20;;
38629;SDS011;24384;51.988;4.644;2024-02-23T09:19:12;8.45;;;2.35;;
38629;SDS011;24384;51.988;4.644;2024-02-23T09:21:37;7.72;;;1.73;;
38629;SDS011;24384;51.988;4.644;2024-02-23T09:24:03;9.65;;;1.88;;
38629;SDS011;24384;51.988;4.644;2024-02-23T09:26:30;17.05;;;2.50;;
38629;SDS011;24384;51.988;4.644;2024-02-23T09:28:56;10.57;;;1.70;;
38629;SDS011;24384;51.988;4.644;2024-02-23T09:31:21;6.82;;;1.58;;
38629;SDS011;24384;51.988;4.644;2024-02-23T09:33:47;8.55;;;1.98;;
38629;SDS011;24384;51.988;4.644;2024-02-23T09:36:14;8.45;;;1.50;;
38629;SDS011;24384;51.988;4.644;2024-02-23T09:38:39;9.90;;;2.72;;
38629;SDS011;24384;51.988;4.644;2024-02-23T09:41:05;9.93;;;2.10;;
38629;SDS011;24384;51.988;4.644;2024-02-23T09:43:36;8.80;;;1.90;;
38629;SDS011;24384;51.988;4.644;2024-02-23T09:46:02;8.38;;;1.98;;
38629;SDS011;24384;51.988;4.644;2024-02-23T09:48:27;7.63;;;2.15;;
38629;SDS011;24384;51.988;4.644;2024-02-23T09:50:53;13.88;;;2.10;;
38629;SDS011;24384;51.988;4.644;2024-02-23T09:53:21;14.52;;;2.83;;
38629;SDS011;24384;51.988;4.644;2024-02-23T09:55:48;4.88;;;1.90;;
38629;SDS011;24384;51.988;4.644;2024-02-23T09:58:16;5.30;;;1.85;;
38629;SDS011;24384;51.988;4.644;2024-02-23T10:00:42;9.75;;;2.60;;
38629;SDS011;24384;51.988;4.644;2024-02-23T10:03:08;8.23;;;2.17;;
38629;SDS011;24384;51.988;4.644;2024-02-23T10:05:34;6.45;;;1.80;;
38629;SDS011;24384;51.988;4.644;2024-02-23T10:07:59;10.50;;;2.92;;
38629;SDS011;24384;51.988;4.644;2024-02-23T10:10:34;5.22;;;1.90;;
38629;SDS011;24384;51.988;4.644;2024-02-23T10:13:00;9.25;;;4.30;;
38629;SDS011;24384;51.988;4.644;2024-02-23T10:15:25;11.63;;;2.00;;
38629;SDS011;24384;51.988;4.644;2024-02-23T10:17:53;8.02;;;2.65;;
38629;SDS011;24384;51.988;4.644;2024-02-23T10:20:20;7.50;;;3.10;;
38629;SDS011;24384;51.988;4.644;2024-02-23T10:22:46;7.68;;;2.13;;
38629;SDS011;24384;51.988;4.644;2024-02-23T10:25:11;5.75;;;1.83;;
38629;SDS011;24384;51.988;4.644;2024-02-23T10:27:37;8.88;;;2.00;;
38629;SDS011;24384;51.988;4.644;2024-02-23T10:30:03;5.50;;;1.52;;
38629;SDS011;24384;51.988;4.644;2024-02-23T10:32:29;5.20;;;1.88;;
38629;SDS011;24384;51.988;4.644;2024-02-23T10:34:55;8.23;;;2.00;;
38629;SDS011;24384;51.988;4.644;2024-02-23T10:37:25;9.25;;;1.40;;
38629;SDS011;24384;51.988;4.644;2024-02-23T10:39:54;6.43;;;2.10;;
38629;SDS011;24384;51.988;4.644;2024-02-23T10:42:23;4.47;;;1.65;;
38629;SDS011;24384;51.988;4.644;2024-02-23T10:44:50;9.27;;;1.88;;
38629;SDS011;24384;51.988;4.644;2024-02-23T10:47:15;14.43;;;2.33;;
38629;SDS011;24384;51.988;4.644;2024-02-23T10:49:41;2.85;;;1.48;;
38629;SDS011;24384;51.988;4.644;2024-02-23T10:52:08;5.70;;;1.30;;
38629;SDS011;24384;51.988;4.644;2024-02-23T10:54:37;10.07;;;1.60;;
38629;SDS011;24384;51.988;4.644;2024-02-23T10:57:03;9.57;;;1.75;;
38629;SDS011;24384;51.988;4.644;2024-02-23T10:59:29;8.25;;;1.63;;
38629;SDS011;24384;51.988;4.644;2024-02-23T11:01:55;6.13;;;1.60;;
38629;SDS011;24384;51.988;4.644;2024-02-23T11:04:25;8.38;;;1.40;;
38629;SDS011;24384;51.988;4.644;2024-02-23T11:06:52;8.48;;;1.65;;
38629;SDS011;24384;51.988;4.644;2024-02-23T11:09:23;6.25;;;1.40;;
38629;SDS011;24384;51.988;4.644;2024-02-23T11:11:56;9.68;;;1.48;;
38629;SDS011;24384;51.988;4.644;2024-02-23T11:14:35;7.20;;;2.15;;
38629;SDS011;24384;51.988;4.644;2024-02-23T11:17:03;4.93;;;1.60;;
38629;SDS011;24384;51.988;4.644;2024-02-23T11:19:32;7.32;;;1.30;;
38629;SDS011;24384;51.988;4.644;2024-02-23T11:22:04;5.70;;;0.93;;
38629;SDS011;24384;51.988;4.644;2024-02-23T11:24:34;7.63;;;1.63;;
38629;SDS011;24384;51.988;4.644;2024-02-23T11:26:59;8.85;;;1.25;;
38629;SDS011;24384;51.988;4.644;2024-02-23T11:29:32;8.02;;;1.50;;
38629;SDS011;24384;51.988;4.644;2024-02-23T11:31:59;6.25;;;1.35;;
38629;SDS011;24384;51.988;4.644;2024-02-23T11:34:29;4.88;;;1.00;;
38629;SDS011;24384;51.988;4.644;2024-02-23T11:36:55;6.90;;;1.25;;
38629;SDS011;24384;51.988;4.644;2024-02-23T11:39:23;7.50;;;1.27;;
38629;SDS011;24384;51.988;4.644;2024-02-23T11:41:48;6.47;;;1.38;;
38629;SDS011;24384;51.988;4.644;2024-02-23T11:44:14;10.55;;;1.88;;
38629;SDS011;24384;51.988;4.644;2024-02-23T11:46:42;6.43;;;0.95;;
38629;SDS011;24384;51.988;4.644;2024-02-23T11:49:08;3.75;;;1.13;;
38629;SDS011;24384;51.988;4.644;2024-02-23T11:51:33;8.43;;;1.60;;
38629;SDS011;24384;51.988;4.644;2024-02-23T11:53:59;5.90;;;1.60;;
38629;SDS011;24384;51.988;4.644;2024-02-23T11:56:25;6.30;;;0.85;;
38629;SDS011;24384;51.988;4.644;2024-02-23T11:58:51;5.78;;;1.17;;
38629;SDS011;24384;51.988;4.644;2024-02-23T12:01:19;9.48;;;1.77;;
38629;SDS011;24384;51.988;4.644;2024-02-23T12:03:44;4.90;;;1.40;;
38629;SDS011;24384;51.988;4.644;2024-02-23T12:06:10;4.78;;;1.02;;
38629;SDS011;24384;51.988;4.644;2024-02-23T12:08:36;3.13;;;1.10;;
38629;SDS011;24384;51.988;4.644;2024-02-23T12:11:06;5.07;;;1.02;;
38629;SDS011;24384;51.988;4.644;2024-02-23T12:13:33;6.88;;;1.15;;
38629;SDS011;24384;51.988;4.644;2024-02-23T12:15:59;6.07;;;2.38;;
38629;SDS011;24384;51.988;4.644;2024-02-23T12:18:25;3.70;;;2.03;;
38629;SDS011;24384;51.988;4.644;2024-02-23T12:20:52;4.70;;;1.45;;
38629;SDS011;24384;51.988;4.644;2024-02-23T12:23:18;5.75;;;1.60;;
38629;SDS011;24384;51.988;4.644;2024-02-23T12:25:53;12.25;;;1.92;;
38629;SDS011;24384;51.988;4.644;2024-02-23T12:28:22;5.43;;;1.35;;
38629;SDS011;24384;51.988;4.644;2024-02-23T12:31:01;10.73;;;1.80;;
38629;SDS011;24384;51.988;4.644;2024-02-23T12:33:28;9.38;;;2.33;;
38629;SDS011;24384;51.988;4.644;2024-02-23T12:35:54;8.48;;;1.95;;
38629;SDS011;24384;51.988;4.644;2024-02-23T12:38:21;3.75;;;1.25;;
38629;SDS011;24384;51.988;4.644;2024-02-23T12:40:48;5.72;;;1.25;;
38629;SDS011;24384;51.988;4.644;2024-02-23T12:43:13;4.55;;;1.38;;
38629;SDS011;24384;51.988;4.644;2024-02-23T12:45:39;9.25;;;1.70;;
38629;SDS011;24384;51.988;4.644;2024-02-23T12:48:05;3.45;;;0.90;;
38629;SDS011;24384;51.988;4.644;2024-02-23T12:50:30;3.60;;;1.20;;
38629;SDS011;24384;51.988;4.644;2024-02-23T12:52:56;5.72;;;1.30;;
38629;SDS011;24384;51.988;4.644;2024-02-23T12:55:21;4.72;;;1.08;;
38629;SDS011;24384;51.988;4.644;2024-02-23T12:57:47;8.48;;;1.15;;
38629;SDS011;24384;51.988;4.644;2024-02-23T13:00:14;9.35;;;1.35;;
38629;SDS011;24384;51.988;4.644;2024-02-23T13:02:42;11.50;;;1.65;;
38629;SDS011;24384;51.988;4.644;2024-02-23T13:05:08;4.20;;;1.23;;
38629;SDS011;24384;51.988;4.644;2024-02-23T13:07:33;6.18;;;1.20;;
38629;SDS011;24384;51.988;4.644;2024-02-23T13:09:58;4.30;;;1.25;;
38629;SDS011;24384;51.988;4.644;2024-02-23T13:12:24;6.22;;;1.02;;
38629;SDS011;24384;51.988;4.644;2024-02-23T13:14:50;5.10;;;1.73;;
38629;SDS011;24384;51.988;4.644;2024-02-23T13:17:18;10.80;;;1.30;;
38629;SDS011;24384;51.988;4.644;2024-02-23T13:19:44;5.03;;;1.00;;
38629;SDS011;24384;51.988;4.644;2024-02-23T13:22:09;5.00;;;1.08;;
38629;SDS011;24384;51.988;4.644;2024-02-23T13:24:34;3.03;;;0.60;;
38629;SDS011;24384;51.988;4.644;2024-02-23T13:27:00;2.22;;;0.57;;
38629;SDS011;24384;51.988;4.644;2024-02-23T13:29:25;2.88;;;0.73;;
38629;SDS011;24384;51.988;4.644;2024-02-23T13:31:51;2.75;;;0.95;;
38629;SDS011;24384;51.988;4.644;2024-02-23T13:34:16;2.65;;;0.88;;
38629;SDS011;24384;51.988;4.644;2024-02-23T13:36:43;1.70;;;0.73;;
38629;SDS011;24384;51.988;4.644;2024-02-23T13:39:08;1.15;;;0.60;;
38629;SDS011;24384;51.988;4.644;2024-02-23T13:41:34;5.78;;;1.38;;
38629;SDS011;24384;51.988;4.644;2024-02-23T13:43:59;2.50;;;0.63;;
38629;SDS011;24384;51.988;4.644;2024-02-23T13:46:25;2.90;;;0.45;;
38629;SDS011;24384;51.988;4.644;2024-02-23T13:49:01;1.20;;;0.40;;
38629;SDS011;24384;51.988;4.644;2024-02-23T13:51:29;1.85;;;0.60;;
38629;SDS011;24384;51.988;4.644;2024-02-23T13:53:54;3.22;;;0.75;;
38629;SDS011;24384;51.988;4.644;2024-02-23T13:56:19;1.65;;;0.55;;
38629;SDS011;24384;51.988;4.644;2024-02-23T13:58:45;3.58;;;0.70;;
38629;SDS011;24384;51.988;4.644;2024-02-23T14:01:11;1.02;;;0.40;;
38629;SDS011;24384;51.988;4.644;2024-02-23T14:03:36;2.92;;;0.40;;
38629;SDS011;24384;51.988;4.644;2024-02-23T14:06:04;1.90;;;0.52;;
38629;SDS011;24384;51.988;4.644;2024-02-23T14:08:29;7.40;;;0.52;;
38629;SDS011;24384;51.988;4.644;2024-02-23T14:10:54;2.63;;;0.55;;
38629;SDS011;24384;51.988;4.644;2024-02-23T14:13:20;2.83;;;0.73;;
38629;SDS011;24384;51.988;4.644;2024-02-23T14:15:45;8.45;;;2.13;;
38629;SDS011;24384;51.988;4.644;2024-02-23T14:18:10;1.52;;;0.60;;
38629;SDS011;24384;51.988;4.644;2024-02-23T14:20:36;2.22;;;0.68;;
38629;SDS011;24384;51.988;4.644;2024-02-23T14:23:01;2.30;;;0.50;;
38629;SDS011;24384;51.988;4.644;2024-02-23T14:25:27;4.90;;;0.73;;
38629;SDS011;24384;51.988;4.644;2024-02-23T14:27:52;2.38;;;0.63;;
38629;SDS011;24384;51.988;4.644;2024-02-23T14:30:17;1.10;;;0.50;;
38629;SDS011;24384;51.988;4.644;2024-02-23T14:32:43;7.07;;;0.90;;
38629;SDS011;24384;51.988;4.644;2024-02-23T14:35:08;4.78;;;0.77;;
38629;SDS011;24384;51.988;4.644;2024-02-23T14:37:34;1.65;;;0.50;;
38629;SDS011;24384;51.988;4.644;2024-02-23T14:40:00;2.40;;;0.55;;
38629;SDS011;24384;51.988;4.644;2024-02-23T14:42:25;2.97;;;0.93;;
38629;SDS011;24384;51.988;4.644;2024-02-23T14:44:50;2.88;;;1.20;;
38629;SDS011;24384;51.988;4.644;2024-02-23T14:47:16;4.45;;;0.80;;